Time;durP1;ratioP1;P1;durP2;ratioP2;P2;SDS_P1;SDS_P2;PMS_P1;PMS_P2;Temp;Humidity;BMP_temperature;BMP_pressure;BME280_temperature;BME280_humidity;BME280_pressure;Samples;Min_cycle;Max_cycle;Signal;HPM_P1;HPM_P2
2021/10/14 00:02:01;;;;;;;134.63;128.17;;;10.70;99.90;;;;;;5053418;28;20448;-86
2021/10/14 00:04:29;;;;;;;124.77;119.30;;;10.70;99.90;;;;;;5053902;28;20483;-88
2021/10/14 00:06:56;;;;;;;125.30;119.13;;;10.60;99.90;;;;;;5054286;28;20463;-87
2021/10/14 00:09:23;;;;;;;117.57;112.13;;;10.60;99.90;;;;;;5054126;28;20977;-87
2021/10/14 00:11:53;;;;;;;118.13;112.63;;;10.60;99.90;;;;;;5053198;28;20562;-88
2021/10/14 00:14:20;;;;;;;117.60;111.97;;;10.50;99.90;;;;;;5054068;28;20953;-87
2021/10/14 00:16:47;;;;;;;114.73;109.77;;;10.50;99.90;;;;;;5054054;28;20475;-82
2021/10/14 00:19:16;;;;;;;128.17;122.37;;;10.70;99.90;;;;;;5054244;28;20474;-87
2021/10/14 00:21:43;;;;;;;117.63;112.10;;;10.70;99.90;;;;;;5053578;28;20969;-86
2021/10/14 00:24:10;;;;;;;107.97;102.10;;;10.60;99.90;;;;;;5053927;28;20509;-86
2021/10/14 00:26:38;;;;;;;104.77;99.77;;;10.60;99.90;;;;;;5053565;28;20493;-88
2021/10/14 00:29:05;;;;;;;92.13;87.87;;;10.80;99.90;;;;;;5053551;28;20452;-87
2021/10/14 00:31:32;;;;;;;81.60;77.10;;;10.70;99.90;;;;;;5053839;28;20448;-87
2021/10/14 00:33:59;;;;;;;83.17;79.17;;;10.70;99.90;;;;;;5053707;28;20505;-87
2021/10/14 00:36:27;;;;;;;79.30;75.40;;;10.70;99.90;;;;;;5053619;28;20551;-87
2021/10/14 00:38:54;;;;;;;72.50;68.67;;;10.70;99.90;;;;;;5053753;28;20545;-88
2021/10/14 00:41:22;;;;;;;67.30;63.57;;;10.80;99.90;;;;;;5053656;28;20501;-87
2021/10/14 00:43:56;;;;;;;70.10;66.30;;;10.70;99.90;;;;;;5051955;28;20487;-88
2021/10/14 00:46:24;;;;;;;71.33;67.43;;;10.80;99.90;;;;;;5033745;28;20579;-86
2021/10/14 00:48:52;;;;;;;69.90;65.90;;;10.70;99.90;;;;;;5033577;28;20535;-87
2021/10/14 00:51:19;;;;;;;69.10;65.30;;;10.70;99.90;;;;;;5033769;28;20456;-86
2021/10/14 00:53:48;;;;;;;70.40;66.60;;;10.60;99.90;;;;;;5033372;28;20507;-87
2021/10/14 00:56:21;;;;;;;61.53;57.30;;;10.70;99.90;;;;;;5033666;28;20555;-88
2021/10/14 00:58:49;;;;;;;72.07;67.97;;;10.80;99.90;;;;;;5032597;28;20461;-87
2021/10/14 01:01:16;;;;;;;60.00;56.60;;;10.80;99.90;;;;;;5050142;28;21077;-87
2021/10/14 01:03:43;;;;;;;51.40;48.70;;;10.70;99.90;;;;;;5053209;28;20514;-87
2021/10/14 01:06:10;;;;;;;53.17;50.10;;;10.80;99.90;;;;;;5053093;28;20497;-87
2021/10/14 01:08:37;;;;;;;49.40;46.07;;;10.80;99.90;;;;;;5053297;28;20462;-87
2021/10/14 01:11:05;;;;;;;51.70;47.83;;;10.70;99.90;;;;;;5053150;28;20513;-88
2021/10/14 01:13:32;;;;;;;51.77;48.90;;;10.80;99.90;;;;;;5051860;28;20541;-88
2021/10/14 01:15:59;;;;;;;47.97;44.87;;;10.70;99.90;;;;;;5052753;28;20468;-86
2021/10/14 01:18:26;;;;;;;48.40;45.10;;;10.80;99.90;;;;;;5053153;28;20483;-87
2021/10/14 01:20:55;;;;;;;44.97;42.37;;;10.70;99.90;;;;;;5053018;28;20506;-86
2021/10/14 01:23:22;;;;;;;48.33;44.60;;;10.80;99.90;;;;;;5052854;28;20508;-87
2021/10/14 01:25:49;;;;;;;46.97;44.10;;;10.80;99.90;;;;;;5052890;28;20447;-87
2021/10/14 01:28:17;;;;;;;52.23;49.03;;;10.70;99.90;;;;;;5051906;28;20459;-87
2021/10/14 01:30:44;;;;;;;53.60;50.40;;;10.80;99.90;;;;;;5052832;28;20460;-88
2021/10/14 01:33:11;;;;;;;62.40;58.67;;;10.80;99.90;;;;;;5052749;28;21186;-87
2021/10/14 01:35:38;;;;;;;53.77;50.30;;;10.80;99.90;;;;;;5052855;28;20459;-86
2021/10/14 01:38:06;;;;;;;45.20;42.50;;;10.70;99.90;;;;;;5052716;28;20456;-87
2021/10/14 01:40:33;;;;;;;45.03;41.97;;;10.80;99.90;;;;;;5052682;28;20465;-87
2021/10/14 01:43:00;;;;;;;34.47;31.90;;;10.80;99.90;;;;;;5051509;28;20477;-86
2021/10/14 01:45:27;;;;;;;26.37;24.10;;;10.80;99.90;;;;;;5065226;28;20450;-87
2021/10/14 01:47:55;;;;;;;27.90;25.20;;;10.80;99.90;;;;;;5072756;28;20462;-87
2021/10/14 01:50:22;;;;;;;29.00;24.30;;;10.90;99.90;;;;;;5072700;28;20458;-88
2021/10/14 01:52:49;;;;;;;27.63;25.40;;;10.80;99.90;;;;;;5072640;28;20510;-86
2021/10/14 01:55:17;;;;;;;26.43;24.30;;;10.80;99.90;;;;;;5073654;28;20455;-87
2021/10/14 01:57:44;;;;;;;26.27;23.97;;;10.80;99.90;;;;;;5075703;28;20877;-87
2021/10/14 02:00:12;;;;;;;21.37;19.57;;;10.90;99.90;;;;;;5076565;28;20486;-88
2021/10/14 02:02:40;;;;;;;22.73;17.47;;;10.90;99.20;;;;;;5076641;28;20533;-87
2021/10/14 02:05:09;;;;;;;19.17;13.50;;;10.80;98.00;;;;;;5076638;28;20497;-87
2021/10/14 02:07:38;;;;;;;19.90;14.77;;;10.80;97.50;;;;;;5076694;28;20558;-87
2021/10/14 02:10:06;;;;;;;21.40;15.97;;;10.90;97.20;;;;;;5076462;28;20520;-86
2021/10/14 02:12:35;;;;;;;19.13;11.40;;;10.90;95.30;;;;;;5075458;28;20573;-87
2021/10/14 02:15:03;;;;;;;13.17;10.03;;;11.00;94.70;;;;;;5076512;28;20489;-86
2021/10/14 02:17:30;;;;;;;15.73;9.20;;;10.90;94.50;;;;;;5076542;28;20470;-88
2021/10/14 02:19:57;;;;;;;19.97;10.97;;;10.90;92.90;;;;;;5076332;28;20482;-85
2021/10/14 02:22:24;;;;;;;14.40;8.20;;;11.00;93.30;;;;;;5076213;28;20477;-86
2021/10/14 02:24:51;;;;;;;17.93;9.83;;;10.90;91.30;;;;;;5076241;28;20462;-87
2021/10/14 02:27:18;;;;;;;19.40;8.80;;;11.00;92.10;;;;;;5075123;28;20478;-88
2021/10/14 02:29:46;;;;;;;14.70;9.87;;;11.00;92.00;;;;;;5076097;28;20545;-88
2021/10/14 02:32:13;;;;;;;23.60;9.57;;;10.80;92.80;;;;;;5075958;28;20794;-86
2021/10/14 02:34:40;;;;;;;24.73;10.17;;;10.80;93.20;;;;;;5076159;28;20537;-86
2021/10/14 02:37:07;;;;;;;14.30;9.97;;;10.80;93.20;;;;;;5075930;28;20523;-88
2021/10/14 02:39:34;;;;;;;17.93;10.07;;;10.80;92.50;;;;;;5075818;28;20477;-86
2021/10/14 02:42:04;;;;;;;16.23;9.60;;;10.80;91.70;;;;;;5074874;28;20462;-88
2021/10/14 02:44:31;;;;;;;18.47;10.53;;;10.70;92.20;;;;;;5075945;28;20486;-89
2021/10/14 02:47:01;;;;;;;15.37;11.33;;;10.80;92.40;;;;;;5076053;28;20485;-86
2021/10/14 02:49:29;;;;;;;14.83;9.33;;;10.90;92.60;;;;;;5075734;28;20496;-88
2021/10/14 02:51:59;;;;;;;28.27;11.40;;;10.80;92.70;;;;;;5075585;28;20489;-87
2021/10/14 02:54:26;;;;;;;49.57;14.60;;;10.80;93.10;;;;;;5075566;28;20474;-87
2021/10/14 02:56:54;;;;;;;18.53;12.30;;;10.80;94.20;;;;;;5074459;28;20490;-88
2021/10/14 02:59:24;;;;;;;20.90;15.30;;;10.70;94.90;;;;;;5075367;28;20965;-88
2021/10/14 03:01:51;;;;;;;24.07;21.60;;;10.60;96.80;;;;;;5075607;28;20450;-88
2021/10/14 03:04:22;;;;;;;32.60;29.70;;;10.60;98.70;;;;;;5054168;28;20478;-86
2021/10/14 03:06:49;;;;;;;36.17;33.67;;;10.40;99.90;;;;;;5054735;28;20505;-86
2021/10/14 03:09:18;;;;;;;38.60;35.20;;;10.40;99.90;;;;;;5055562;28;20487;-88
2021/10/14 03:11:45;;;;;;;46.90;43.63;;;10.40;99.90;;;;;;5054534;28;20836;-87
2021/10/14 03:14:12;;;;;;;47.23;44.20;;;10.30;99.90;;;;;;5066094;28;20933;-88
2021/10/14 03:16:39;;;;;;;34.80;31.40;;;10.20;99.90;;;;;;5071371;28;20528;-88
2021/10/14 03:19:06;;;;;;;37.43;34.17;;;10.30;99.90;;;;;;5056233;28;20482;-87
2021/10/14 03:21:37;;;;;;;35.97;33.70;;;10.30;99.90;;;;;;5055292;28;20806;-85
2021/10/14 03:24:05;;;;;;;33.20;30.33;;;10.30;99.90;;;;;;5055291;28;20513;-87
2021/10/14 03:26:31;;;;;;;33.83;30.80;;;10.30;99.90;;;;;;5055296;28;20467;-87
2021/10/14 03:28:58;;;;;;;36.37;33.37;;;10.40;99.90;;;;;;5054238;28;20976;-87
2021/10/14 03:31:30;;;;;;;32.70;29.30;;;10.30;99.90;;;;;;5054874;28;20542;-87
2021/10/14 03:34:00;;;;;;;31.50;29.07;;;10.30;99.90;;;;;;5054816;28;20998;-87
2021/10/14 03:36:27;;;;;;;31.00;28.30;;;10.40;99.70;;;;;;5054706;28;20490;-87
2021/10/14 03:39:02;;;;;;;31.60;28.57;;;10.40;99.40;;;;;;5054728;28;20538;-88
2021/10/14 03:41:31;;;;;;;24.63;22.33;;;10.40;99.30;;;;;;5054813;28;20501;-87
2021/10/14 03:44:02;;;;;;;35.47;20.00;;;10.40;98.40;;;;;;5053545;28;20486;-87
2021/10/14 03:46:29;;;;;;;18.87;17.33;;;10.40;98.00;;;;;;5069371;28;20457;-88
2021/10/14 03:48:56;;;;;;;21.37;19.13;;;10.40;97.80;;;;;;5074631;28;20486;-87
2021/10/14 03:51:23;;;;;;;20.70;17.97;;;10.40;97.80;;;;;;5074573;28;20450;-88
2021/10/14 03:53:53;;;;;;;23.00;19.77;;;10.40;97.70;;;;;;5074671;28;20486;-90
2021/10/14 03:56:21;;;;;;;21.20;18.87;;;10.30;97.70;;;;;;5074537;28;20538;-90
2021/10/14 03:58:48;;;;;;;22.03;19.20;;;10.20;97.70;;;;;;5069503;28;20462;-88
2021/10/14 04:01:16;;;;;;;30.17;22.93;;;10.40;97.80;;;;;;5074369;28;20996;-90
2021/10/14 04:03:43;;;;;;;22.80;20.57;;;10.40;97.80;;;;;;5074415;28;20938;-88
2021/10/14 04:06:10;;;;;;;21.27;19.13;;;10.40;97.80;;;;;;5077053;28;20963;-90
2021/10/14 04:08:37;;;;;;;23.17;20.83;;;10.40;97.80;;;;;;5074576;28;20508;-90
2021/10/14 04:11:04;;;;;;;21.90;19.40;;;10.40;97.80;;;;;;5074241;28;20489;-87
2021/10/14 04:13:33;;;;;;;24.83;19.47;;;10.30;97.70;;;;;;5073189;28;20489;-87
2021/10/14 04:15:59;;;;;;;32.90;19.67;;;10.50;97.70;;;;;;5074232;28;20818;-89
2021/10/14 04:18:26;;;;;;;23.63;19.87;;;10.40;97.80;;;;;;5074367;28;20450;-90
2021/10/14 04:20:55;;;;;;;25.07;20.63;;;10.50;97.60;;;;;;5074125;28;20458;-88
2021/10/14 04:23:26;;;;;;;21.93;19.83;;;10.50;97.80;;;;;;5073911;28;20620;-83
2021/10/14 04:25:53;;;;;;;22.70;20.17;;;10.50;97.90;;;;;;5074048;28;20459;-89
2021/10/14 04:28:20;;;;;;;20.63;18.50;;;10.60;97.30;;;;;;5072916;28;20458;-86
2021/10/14 04:30:49;;;;;;;22.50;19.40;;;10.60;97.00;;;;;;5073878;28;20542;-88
2021/10/14 04:33:16;;;;;;;19.60;17.63;;;10.50;96.80;;;;;;5073905;28;20482;-86
2021/10/14 04:35:43;;;;;;;19.47;16.77;;;10.50;96.60;;;;;;5073797;28;20545;-88
2021/10/14 04:38:10;;;;;;;22.47;19.93;;;10.50;96.80;;;;;;5073803;28;20481;-89
2021/10/14 04:40:37;;;;;;;25.20;18.73;;;10.50;96.60;;;;;;5073586;28;20482;-90
2021/10/14 04:43:06;;;;;;;25.27;17.97;;;10.50;96.40;;;;;;5072715;28;20443;-89
2021/10/14 04:45:33;;;;;;;19.30;17.17;;;10.50;96.40;;;;;;5060446;28;20529;-90
2021/10/14 04:48:04;;;;;;;24.37;15.97;;;10.60;95.80;;;;;;5053748;28;20459;-84
2021/10/14 04:50:43;;;;;;;18.13;14.70;;;10.50;95.70;;;;;;5053689;28;20460;-87
2021/10/14 04:53:12;;;;;;;23.67;17.30;;;10.40;95.90;;;;;;5053338;28;20482;-87
2021/10/14 04:55:39;;;;;;;17.27;14.53;;;10.50;95.60;;;;;;5053620;28;20467;-88
2021/10/14 04:58:06;;;;;;;23.63;15.27;;;10.40;95.40;;;;;;5058227;28;20466;-90
2021/10/14 05:00:34;;;;;;;25.07;17.13;;;10.50;95.40;;;;;;5073218;28;20478;-88
2021/10/14 05:03:01;;;;;;;22.90;17.00;;;10.40;95.40;;;;;;5066647;28;20451;-90
2021/10/14 05:05:32;;;;;;;20.27;18.00;;;10.50;95.80;;;;;;5053152;28;20881;-89
2021/10/14 05:07:58;;;;;;;17.17;15.33;;;10.50;95.60;;;;;;5053499;28;20488;-83
2021/10/14 05:10:26;;;;;;;25.33;19.47;;;10.50;95.30;;;;;;5053335;28;20461;-90
2021/10/14 05:12:53;;;;;;;21.27;16.67;;;10.40;95.40;;;;;;5052265;28;20846;-88
2021/10/14 05:15:19;;;;;;;19.97;15.50;;;10.60;95.40;;;;;;5052962;28;20569;-89
2021/10/14 05:17:47;;;;;;;23.20;17.40;;;10.50;95.50;;;;;;5052989;28;20495;-88
2021/10/14 05:20:19;;;;;;;23.60;17.63;;;10.50;95.70;;;;;;5057176;28;20454;-90
2021/10/14 05:22:47;;;;;;;28.70;19.17;;;10.50;95.60;;;;;;5072986;28;20463;-83
2021/10/14 05:25:15;;;;;;;27.63;21.40;;;10.50;95.70;;;;;;5072295;28;20463;-88
2021/10/14 05:27:41;;;;;;;27.23;18.40;;;10.60;95.80;;;;;;5072136;28;20451;-89
2021/10/14 05:30:10;;;;;;;24.23;19.10;;;10.60;95.70;;;;;;5072479;28;20486;-89
2021/10/14 05:32:37;;;;;;;23.63;19.37;;;10.60;95.80;;;;;;5072994;28;20458;-89
2021/10/14 05:35:04;;;;;;;23.17;19.00;;;10.50;95.70;;;;;;5072843;28;20886;-88
2021/10/14 05:37:31;;;;;;;30.30;24.40;;;10.50;95.70;;;;;;5072828;28;20489;-89
2021/10/14 05:40:00;;;;;;;27.47;20.40;;;10.70;95.70;;;;;;5072928;28;20537;-89
2021/10/14 05:42:27;;;;;;;29.63;21.63;;;10.60;95.70;;;;;;5071837;28;20870;-88
2021/10/14 05:44:54;;;;;;;31.30;21.07;;;10.80;96.30;;;;;;5072777;28;21012;-89
2021/10/14 05:47:21;;;;;;;35.10;22.47;;;10.60;95.50;;;;;;5072670;28;21044;-89
2021/10/14 05:49:48;;;;;;;27.83;22.50;;;10.50;95.90;;;;;;5072789;28;20480;-89
2021/10/14 05:52:15;;;;;;;28.67;21.00;;;10.70;95.80;;;;;;5072572;28;20553;-83
2021/10/14 05:54:42;;;;;;;26.40;23.60;;;10.60;95.80;;;;;;5072713;28;20483;-81
2021/10/14 05:57:10;;;;;;;34.57;25.07;;;10.60;96.20;;;;;;5071729;28;20541;-84
2021/10/14 05:59:37;;;;;;;33.47;27.17;;;10.60;96.00;;;;;;5075999;28;20478;-83
2021/10/14 06:02:04;;;;;;;39.07;33.47;;;10.60;96.40;;;;;;5092733;28;20445;-87
2021/10/14 06:04:31;;;;;;;43.20;38.70;;;10.60;97.20;;;;;;5092877;28;20966;-83
2021/10/14 06:06:57;;;;;;;52.77;48.27;;;10.50;97.80;;;;;;5092995;28;20865;-87
2021/10/14 06:09:24;;;;;;;67.07;61.77;;;10.60;99.00;;;;;;5092787;28;20548;-86
2021/10/14 06:11:52;;;;;;;97.97;91.00;;;10.50;99.90;;;;;;5091491;28;20457;-90
2021/10/14 06:14:21;;;;;;;107.73;101.37;;;10.50;99.90;;;;;;5092554;28;20485;-84
2021/10/14 06:16:47;;;;;;;119.17;111.73;;;10.50;99.90;;;;;;5092130;28;20481;-86
2021/10/14 06:19:14;;;;;;;134.43;126.87;;;10.50;99.90;;;;;;5092565;28;20485;-85
2021/10/14 06:21:41;;;;;;;149.43;141.57;;;10.50;99.90;;;;;;5092730;28;20821;-84
2021/10/14 06:24:10;;;;;;;157.23;149.23;;;10.50;99.90;;;;;;5092668;28;20475;-83
2021/10/14 06:26:36;;;;;;;164.60;155.77;;;10.50;99.90;;;;;;5091762;28;20481;-82
2021/10/14 06:29:03;;;;;;;154.27;147.00;;;10.50;99.90;;;;;;5092666;28;20453;-83
2021/10/14 06:31:32;;;;;;;169.80;160.97;;;10.40;99.90;;;;;;5092367;28;20552;-83
2021/10/14 06:33:59;;;;;;;166.57;157.77;;;10.50;99.90;;;;;;5092432;28;20534;-82
2021/10/14 06:36:26;;;;;;;170.80;162.47;;;10.60;99.90;;;;;;5092613;28;20527;-82
2021/10/14 06:38:53;;;;;;;155.10;147.57;;;10.50;99.90;;;;;;5092320;28;20453;-82
2021/10/14 06:41:43;;;;;;;150.70;143.53;;;10.60;99.90;;;;;;5092236;28;20544;-87
2021/10/14 06:44:11;;;;;;;149.37;141.57;;;10.50;99.90;;;;;;5095893;28;20464;-81
2021/10/14 06:46:42;;;;;;;144.07;137.17;;;10.60;99.90;;;;;;5096331;28;20829;-89
2021/10/14 06:49:09;;;;;;;150.83;142.93;;;10.60;99.90;;;;;;5096013;28;20442;-83
2021/10/14 06:51:39;;;;;;;146.97;139.97;;;10.60;99.90;;;;;;5095798;28;20449;-89
2021/10/14 06:54:07;;;;;;;175.27;167.23;;;10.60;99.90;;;;;;5095608;28;20481;-84
2021/10/14 06:56:34;;;;;;;182.37;174.33;;;10.70;99.90;;;;;;5095762;28;20453;-84
2021/10/14 06:59:03;;;;;;;173.83;165.73;;;10.70;99.90;;;;;;5095309;28;20532;-83
2021/10/14 07:01:30;;;;;;;188.60;179.80;;;10.60;99.90;;;;;;5095882;28;20896;-82
2021/10/14 07:03:58;;;;;;;208.60;198.63;;;10.60;99.90;;;;;;5095856;28;20458;-83
2021/10/14 07:06:25;;;;;;;207.30;197.47;;;10.60;99.90;;;;;;5095688;28;20501;-81
2021/10/14 07:08:52;;;;;;;201.03;191.77;;;10.60;99.90;;;;;;5095534;28;20446;-83
2021/10/14 07:11:19;;;;;;;215.93;206.23;;;10.50;99.90;;;;;;5096113;28;20456;-85
2021/10/14 07:13:46;;;;;;;223.97;214.37;;;10.50;99.90;;;;;;5094345;28;20911;-84
2021/10/14 07:16:13;;;;;;;241.70;231.33;;;10.40;99.90;;;;;;5095679;28;20576;-82
2021/10/14 07:18:40;;;;;;;222.70;212.93;;;10.60;99.90;;;;;;5095630;28;20465;-82
2021/10/14 07:21:13;;;;;;;217.93;208.53;;;10.50;99.90;;;;;;5095715;28;20808;-85
2021/10/14 07:23:40;;;;;;;218.20;208.17;;;10.60;99.90;;;;;;5095643;28;20465;-84
2021/10/14 07:26:06;;;;;;;181.87;173.63;;;10.60;99.90;;;;;;5095669;28;20788;-82
2021/10/14 07:28:33;;;;;;;169.73;161.93;;;10.60;99.90;;;;;;5094058;28;20458;-83
2021/10/14 07:31:00;;;;;;;178.83;170.33;;;10.70;99.90;;;;;;5095286;28;20803;-83
2021/10/14 07:33:27;;;;;;;152.20;145.00;;;10.80;99.90;;;;;;5095187;28;20503;-82
2021/10/14 07:35:54;;;;;;;135.80;129.30;;;10.80;99.90;;;;;;5095159;28;20481;-84
2021/10/14 07:38:22;;;;;;;122.80;116.50;;;10.80;99.90;;;;;;5095146;28;20489;-83
2021/10/14 07:40:51;;;;;;;130.80;123.67;;;10.90;99.90;;;;;;5095181;28;20454;-85
2021/10/14 07:43:18;;;;;;;107.40;101.57;;;10.90;99.90;;;;;;5093779;28;20458;-84
2021/10/14 07:45:47;;;;;;;108.33;102.60;;;11.10;99.90;;;;;;5095015;28;20454;-83
2021/10/14 07:48:14;;;;;;;89.80;84.20;;;11.10;99.90;;;;;;5095057;28;20522;-83
2021/10/14 07:50:41;;;;;;;71.93;66.30;;;11.20;99.90;;;;;;5094927;28;20548;-84
2021/10/14 07:53:13;;;;;;;59.07;54.20;;;11.30;99.90;;;;;;5094401;28;20515;-85
2021/10/14 07:55:41;;;;;;;56.53;51.50;;;11.30;99.90;;;;;;5094763;28;20572;-85
2021/10/14 07:58:09;;;;;;;56.93;52.40;;;11.50;99.90;;;;;;5093725;28;20457;-86
2021/10/14 08:00:36;;;;;;;58.83;54.13;;;11.50;99.90;;;;;;5094478;28;20516;-84
2021/10/14 08:03:03;;;;;;;55.57;51.60;;;11.30;99.90;;;;;;5094669;28;20889;-84
2021/10/14 08:05:32;;;;;;;61.93;57.30;;;11.50;99.90;;;;;;5094595;28;20461;-83
2021/10/14 08:08:02;;;;;;;55.63;51.47;;;11.50;99.90;;;;;;5094579;28;20478;-83
2021/10/14 08:10:29;;;;;;;56.93;52.27;;;11.40;99.90;;;;;;5094511;28;20486;-82
2021/10/14 08:13:00;;;;;;;55.07;50.57;;;11.60;99.90;;;;;;5093194;28;20450;-83
2021/10/14 08:15:27;;;;;;;49.37;44.67;;;11.60;99.90;;;;;;5094523;28;20481;-84
2021/10/14 08:17:54;;;;;;;48.67;44.07;;;11.50;99.90;;;;;;5094513;28;21014;-84
2021/10/14 08:20:22;;;;;;;50.07;45.53;;;11.50;99.90;;;;;;5094247;28;20937;-84
2021/10/14 08:22:49;;;;;;;53.93;49.60;;;11.50;99.90;;;;;;5094353;28;20879;-83
2021/10/14 08:25:16;;;;;;;59.67;55.40;;;11.60;99.90;;;;;;5094282;28;20453;-85
2021/10/14 08:27:45;;;;;;;56.57;52.20;;;11.60;99.90;;;;;;5092883;28;20457;-83
2021/10/14 08:30:14;;;;;;;54.47;48.73;;;11.70;99.90;;;;;;5094267;28;20815;-83
2021/10/14 08:32:42;;;;;;;48.17;43.90;;;11.70;99.90;;;;;;5094101;28;20477;-87
2021/10/14 08:35:10;;;;;;;45.10;41.03;;;11.80;99.90;;;;;;5093985;28;20929;-84
2021/10/14 08:37:37;;;;;;;42.27;38.43;;;11.80;99.90;;;;;;5093921;28;20461;-83
2021/10/14 08:40:05;;;;;;;45.33;40.80;;;11.80;99.10;;;;;;5094053;28;20457;-83
2021/10/14 08:42:32;;;;;;;45.87;41.47;;;11.70;99.80;;;;;;5092715;28;20464;-82
2021/10/14 08:45:02;;;;;;;43.27;39.30;;;11.90;99.40;;;;;;5094033;28;20885;-85
2021/10/14 08:47:31;;;;;;;46.33;42.27;;;11.90;99.80;;;;;;5093898;28;20453;-83
2021/10/14 08:49:58;;;;;;;48.33;43.67;;;11.90;99.40;;;;;;5094175;28;20937;-83
2021/10/14 08:52:26;;;;;;;50.47;45.90;;;12.00;99.90;;;;;;5093794;28;20477;-83
2021/10/14 08:54:53;;;;;;;60.43;55.40;;;11.90;99.90;;;;;;5093602;28;20991;-84
2021/10/14 08:57:20;;;;;;;52.07;47.53;;;11.90;99.90;;;;;;5092341;28;20461;-83
2021/10/14 08:59:47;;;;;;;62.40;57.30;;;12.00;99.90;;;;;;5093560;28;20469;-84
2021/10/14 09:02:17;;;;;;;60.30;55.70;;;11.90;99.90;;;;;;5093591;28;20867;-86
2021/10/14 09:05:07;;;;;;;56.77;52.07;;;12.00;99.90;;;;;;5092974;28;20461;-85
2021/10/14 09:07:34;;;;;;;63.63;58.40;;;12.10;99.90;;;;;;5093768;28;20473;-84
2021/10/14 09:10:05;;;;;;;61.77;56.90;;;12.00;99.90;;;;;;5093443;28;20449;-83
2021/10/14 09:12:35;;;;;;;66.73;60.97;;;12.20;99.90;;;;;;5092150;28;20450;-83
2021/10/14 09:15:04;;;;;;;56.33;51.57;;;12.20;99.90;;;;;;5093701;28;20466;-83
2021/10/14 09:17:58;;;;;;;55.23;50.27;;;12.20;99.90;;;;;;5093317;28;20453;-84
2021/10/14 09:20:38;;;;;;;53.03;48.67;;;12.20;99.90;;;;;;5092940;28;20526;-86
2021/10/14 09:23:11;;;;;;;49.13;44.20;;;12.30;99.70;;;;;;5092977;28;20445;-84
2021/10/14 09:25:41;;;;;;;52.77;47.57;;;12.30;99.40;;;;;;5093097;28;20544;-85
2021/10/14 09:28:26;;;;;;;41.83;37.87;;;12.40;99.60;;;;;;5091997;28;20485;-85
2021/10/14 09:30:56;;;;;;;50.83;45.47;;;12.40;99.20;;;;;;5093058;28;20540;-86
2021/10/14 09:33:35;;;;;;;52.23;47.33;;;12.50;99.80;;;;;;5093173;28;20454;-84
2021/10/14 09:36:32;;;;;;;49.63;45.10;;;12.60;99.40;;;;;;5093020;28;20477;-86
2021/10/14 09:39:02;;;;;;;35.27;31.53;;;12.90;98.80;;;;;;5046590;28;21145;-86
2021/10/14 09:41:30;;;;;;;35.10;31.30;;;13.00;96.10;;;;;;5093159;28;20449;-87
2021/10/14 09:44:04;;;;;;;35.40;28.40;;;13.20;95.40;;;;;;5092037;28;20449;-84
2021/10/14 09:46:36;;;;;;;28.43;24.33;;;13.40;94.80;;;;;;5093013;28;20460;-85
2021/10/14 09:49:07;;;;;;;34.80;24.93;;;13.40;93.90;;;;;;5092867;28;20940;-86
2021/10/14 09:51:38;;;;;;;28.53;24.23;;;13.60;93.60;;;;;;5092819;28;20457;-86
2021/10/14 09:54:05;;;;;;;29.13;22.73;;;13.50;93.80;;;;;;5080257;28;21234;-84
2021/10/14 09:56:32;;;;;;;30.90;22.27;;;13.60;92.40;;;;;;5071322;28;20486;-85
2021/10/14 09:59:01;;;;;;;36.07;24.40;;;13.60;92.20;;;;;;5070671;28;20541;-85
2021/10/14 10:01:30;;;;;;;30.50;22.67;;;13.70;92.20;;;;;;5071196;28;20518;-85
2021/10/14 10:03:58;;;;;;;25.00;19.10;;;13.70;91.30;;;;;;5071522;28;20964;-84
2021/10/14 10:06:30;;;;;;;27.27;20.43;;;13.70;90.60;;;;;;5071493;28;20509;-86
2021/10/14 10:09:04;;;;;;;28.13;17.77;;;13.90;90.20;;;;;;5066055;28;20454;-87
2021/10/14 10:11:38;;;;;;;24.67;17.97;;;14.00;89.70;;;;;;5070903;28;20482;-89
2021/10/14 10:14:06;;;;;;;26.00;17.13;;;14.00;89.10;;;;;;5070794;28;20497;-85
2021/10/14 10:16:35;;;;;;;25.50;18.57;;;13.90;87.10;;;;;;5072743;28;20514;-86
2021/10/14 10:19:22;;;;;;;21.50;16.13;;;14.00;86.60;;;;;;5075826;28;20483;-85
2021/10/14 10:21:49;;;;;;;29.47;17.03;;;13.90;84.80;;;;;;5076163;28;20810;-84
2021/10/14 10:24:32;;;;;;;29.50;17.80;;;13.90;86.40;;;;;;5076301;28;20569;-85
2021/10/14 10:27:29;;;;;;;27.23;19.03;;;13.90;87.80;;;;;;5075507;28;20462;-83
2021/10/14 10:30:04;;;;;;;23.13;15.20;;;13.90;87.40;;;;;;5076308;28;20454;-86
2021/10/14 10:32:45;;;;;;;26.57;15.70;;;13.90;87.50;;;;;;5076163;28;20485;-84
2021/10/14 10:35:34;;;;;;;27.63;16.03;;;13.80;86.10;;;;;;5076166;28;20474;-85
2021/10/14 10:38:14;;;;;;;32.70;19.63;;;13.70;86.70;;;;;;5075931;28;20461;-84
2021/10/14 10:40:44;;;;;;;25.83;17.80;;;13.80;88.50;;;;;;5075985;28;20462;-85
2021/10/14 10:43:21;;;;;;;24.17;16.50;;;13.70;88.90;;;;;;5075204;28;20454;-86
2021/10/14 10:45:53;;;;;;;23.97;15.80;;;13.60;89.00;;;;;;5076313;28;20450;-86
2021/10/14 10:48:33;;;;;;;24.77;16.47;;;13.70;88.80;;;;;;5076058;28;20969;-86
2021/10/14 10:51:01;;;;;;;22.75;16.38;;;13.60;88.30;;;;;;5075366;28;20464;-86
2021/10/14 10:53:39;;;;;;;24.90;16.63;;;13.70;88.90;;;;;;5075741;28;20193;-85
2021/10/14 10:56:08;;;;;;;29.70;15.97;;;13.60;88.00;;;;;;5075495;28;20535;-85
2021/10/14 10:58:50;;;;;;;19.53;13.40;;;13.60;87.70;;;;;;5074628;28;20846;-84
2021/10/14 11:01:18;;;;;;;17.13;13.13;;;13.60;85.50;;;;;;5072767;28;20918;-85
2021/10/14 11:03:57;;;;;;;22.37;13.73;;;13.50;86.10;;;;;;5075375;28;20461;-84
2021/10/14 11:06:29;;;;;;;25.97;13.57;;;13.70;85.30;;;;;;5075232;28;20599;-86
2021/10/14 11:12:21;;;;;;;25.10;13.17;;;13.80;84.00;;;;;;5071666;28;20455;-84
2021/10/14 11:14:49;;;;;;;22.10;11.60;;;13.90;84.90;;;;;;5075280;28;20466;-86
2021/10/14 11:17:16;;;;;;;18.77;11.80;;;13.90;84.10;;;;;;5075282;28;20528;-85
2021/10/14 11:19:47;;;;;;;21.00;12.73;;;13.90;84.40;;;;;;5075226;28;20547;-85
2021/10/14 11:22:27;;;;;;;22.83;12.17;;;13.80;83.40;;;;;;5075245;28;20458;-87
2021/10/14 11:25:00;;;;;;;20.47;12.77;;;14.00;84.20;;;;;;5075181;28;20461;-88
2021/10/14 11:27:28;;;;;;;17.50;12.13;;;14.00;84.60;;;;;;5073757;28;20447;-86
2021/10/14 11:30:16;;;;;;;19.17;13.23;;;14.10;83.50;;;;;;5074864;28;20450;-85
2021/10/14 11:32:57;;;;;;;24.63;13.40;;;14.10;83.60;;;;;;5075336;28;20455;-85
2021/10/14 11:35:27;;;;;;;25.10;13.10;;;14.40;83.40;;;;;;5074771;28;21034;-85
2021/10/14 11:38:09;;;;;;;17.87;12.30;;;14.40;81.10;;;;;;5074968;28;20491;-85
2021/10/14 11:40:40;;;;;;;18.57;13.70;;;14.50;82.10;;;;;;5074974;28;20450;-86
2021/10/14 11:43:27;;;;;;;17.30;12.00;;;14.60;81.20;;;;;;5074117;28;20455;-85
2021/10/14 11:45:57;;;;;;;22.87;12.33;;;14.70;80.60;;;;;;5074521;28;20502;-85
2021/10/14 11:48:35;;;;;;;17.90;12.00;;;14.80;79.10;;;;;;5074740;28;20459;-87
2021/10/14 11:51:04;;;;;;;21.27;12.10;;;15.10;77.40;;;;;;5074867;28;20460;-85
2021/10/14 11:53:36;;;;;;;20.40;11.97;;;15.00;77.60;;;;;;5075119;28;20462;-87
2021/10/14 11:56:06;;;;;;;24.23;11.17;;;15.20;76.60;;;;;;5074420;28;20974;-86
2021/10/14 11:58:40;;;;;;;19.63;10.60;;;15.40;75.40;;;;;;5073484;28;20467;-87
2021/10/14 12:01:14;;;;;;;14.63;11.30;;;15.60;74.20;;;;;;5074369;28;20487;-86
2021/10/14 12:03:50;;;;;;;14.63;10.37;;;15.60;72.30;;;;;;5074684;28;20475;-85
2021/10/14 12:06:23;;;;;;;17.53;10.60;;;15.90;71.60;;;;;;5074346;28;20576;-86
2021/10/14 12:09:05;;;;;;;17.10;10.77;;;16.10;70.00;;;;;;5074207;28;20465;-88
2021/10/14 12:11:34;;;;;;;15.80;9.83;;;16.20;69.00;;;;;;5074490;28;20488;-86
2021/10/14 12:14:34;;;;;;;17.00;10.57;;;16.60;67.00;;;;;;5073211;28;20941;-88
2021/10/14 12:17:40;;;;;;;18.03;9.93;;;16.80;66.20;;;;;;5074025;28;20495;-86
2021/10/14 12:20:17;;;;;;;17.47;10.47;;;17.00;62.70;;;;;;4953951;29;20461;-86
2021/10/14 12:23:01;;;;;;;15.83;9.97;;;17.30;60.80;;;;;;5033970;28;20477;-87
2021/10/14 12:25:58;;;;;;;13.80;10.70;;;17.40;59.90;;;;;;5073964;28;20820;-86
2021/10/14 12:28:30;;;;;;;21.30;11.63;;;16.90;60.50;;;;;;4952615;29;20987;-87
2021/10/14 12:31:16;;;;;;;17.40;11.40;;;16.50;62.40;;;;;;5065389;28;20471;-85
2021/10/14 12:40:24;;;;;;;16.43;10.33;;;18.70;54.30;;;;;;5073419;28;20944;-84
2021/10/14 12:43:05;;;;;;;17.40;10.23;;;18.60;51.90;;;;;;5072382;28;20858;-86
2021/10/14 12:46:25;;;;;;;17.93;10.03;;;18.30;51.70;;;;;;5073835;28;20875;-87
2021/10/14 12:49:31;;;;;;;14.40;9.60;;;18.50;51.80;;;;;;5053321;28;20964;-84